sensor_id;sensor_type;location;lat;lon;timestamp;P1;durP1;ratioP1;P2;durP2;ratioP2
32038;SDS011;18549;42.286;22.688;2022-10-16T00:00:45;10.53;;;7.13;;
32038;SDS011;18549;42.286;22.688;2022-10-16T00:03:14;8.33;;;6.83;;
32038;SDS011;18549;42.286;22.688;2022-10-16T00:05:42;10.37;;;7.90;;
32038;SDS011;18549;42.286;22.688;2022-10-16T00:08:11;10.03;;;8.43;;
32038;SDS011;18549;42.286;22.688;2022-10-16T00:10:39;13.00;;;9.03;;
32038;SDS011;18549;42.286;22.688;2022-10-16T00:13:06;12.93;;;7.97;;
32038;SDS011;18549;42.286;22.688;2022-10-16T00:15:34;10.47;;;6.60;;
32038;SDS011;18549;42.286;22.688;2022-10-16T00:18:02;10.50;;;6.40;;
32038;SDS011;18549;42.286;22.688;2022-10-16T00:20:29;11.87;;;6.40;;
32038;SDS011;18549;42.286;22.688;2022-10-16T00:23:00;15.20;;;6.97;;
32038;SDS011;18549;42.286;22.688;2022-10-16T00:25:28;12.27;;;7.33;;
32038;SDS011;18549;42.286;22.688;2022-10-16T00:27:57;13.97;;;7.50;;
32038;SDS011;18549;42.286;22.688;2022-10-16T00:30:24;12.90;;;6.90;;
32038;SDS011;18549;42.286;22.688;2022-10-16T00:32:52;15.33;;;7.70;;
32038;SDS011;18549;42.286;22.688;2022-10-16T00:35:19;10.40;;;7.03;;
32038;SDS011;18549;42.286;22.688;2022-10-16T00:37:46;15.03;;;6.73;;
32038;SDS011;18549;42.286;22.688;2022-10-16T00:40:15;15.60;;;7.73;;
32038;SDS011;18549;42.286;22.688;2022-10-16T00:42:44;14.07;;;7.27;;
32038;SDS011;18549;42.286;22.688;2022-10-16T00:45:13;19.30;;;9.47;;
32038;SDS011;18549;42.286;22.688;2022-10-16T00:47:41;14.03;;;9.00;;
32038;SDS011;18549;42.286;22.688;2022-10-16T00:50:11;14.13;;;7.80;;
32038;SDS011;18549;42.286;22.688;2022-10-16T00:52:44;14.83;;;10.27;;
32038;SDS011;18549;42.286;22.688;2022-10-16T00:55:15;15.17;;;10.07;;
32038;SDS011;18549;42.286;22.688;2022-10-16T00:57:45;8.90;;;7.30;;
32038;SDS011;18549;42.286;22.688;2022-10-16T01:00:13;15.17;;;8.37;;
32038;SDS011;18549;42.286;22.688;2022-10-16T01:02:44;12.43;;;7.53;;
32038;SDS011;18549;42.286;22.688;2022-10-16T01:05:12;10.63;;;7.40;;
32038;SDS011;18549;42.286;22.688;2022-10-16T01:07:41;14.03;;;7.10;;
32038;SDS011;18549;42.286;22.688;2022-10-16T01:10:20;9.93;;;6.57;;
32038;SDS011;18549;42.286;22.688;2022-10-16T01:12:54;10.03;;;7.00;;
32038;SDS011;18549;42.286;22.688;2022-10-16T01:15:26;12.37;;;7.97;;
32038;SDS011;18549;42.286;22.688;2022-10-16T01:17:57;10.63;;;6.57;;
32038;SDS011;18549;42.286;22.688;2022-10-16T01:20:30;11.13;;;7.07;;
32038;SDS011;18549;42.286;22.688;2022-10-16T01:23:06;11.23;;;7.80;;
32038;SDS011;18549;42.286;22.688;2022-10-16T01:25:49;13.27;;;7.27;;
32038;SDS011;18549;42.286;22.688;2022-10-16T01:28:28;10.43;;;6.30;;
32038;SDS011;18549;42.286;22.688;2022-10-16T01:30:59;11.13;;;7.07;;
32038;SDS011;18549;42.286;22.688;2022-10-16T01:33:33;13.67;;;8.63;;
32038;SDS011;18549;42.286;22.688;2022-10-16T01:36:06;8.93;;;6.57;;
32038;SDS011;18549;42.286;22.688;2022-10-16T01:38:38;8.37;;;5.53;;
32038;SDS011;18549;42.286;22.688;2022-10-16T01:41:07;15.07;;;7.83;;
32038;SDS011;18549;42.286;22.688;2022-10-16T01:43:39;14.33;;;8.00;;
32038;SDS011;18549;42.286;22.688;2022-10-16T01:46:08;13.20;;;7.70;;
32038;SDS011;18549;42.286;22.688;2022-10-16T01:48:37;14.30;;;7.53;;
32038;SDS011;18549;42.286;22.688;2022-10-16T01:51:08;11.07;;;7.37;;
32038;SDS011;18549;42.286;22.688;2022-10-16T01:53:37;14.37;;;8.83;;
32038;SDS011;18549;42.286;22.688;2022-10-16T01:56:07;10.87;;;7.83;;
32038;SDS011;18549;42.286;22.688;2022-10-16T01:58:40;16.93;;;7.40;;
32038;SDS011;18549;42.286;22.688;2022-10-16T02:01:11;9.13;;;7.30;;
32038;SDS011;18549;42.286;22.688;2022-10-16T02:03:39;9.83;;;6.43;;
32038;SDS011;18549;42.286;22.688;2022-10-16T02:06:08;19.70;;;7.43;;
32038;SDS011;18549;42.286;22.688;2022-10-16T02:08:36;9.60;;;6.40;;
32038;SDS011;18549;42.286;22.688;2022-10-16T02:11:05;8.33;;;6.10;;
32038;SDS011;18549;42.286;22.688;2022-10-16T02:13:33;9.47;;;6.53;;
32038;SDS011;18549;42.286;22.688;2022-10-16T02:16:05;13.57;;;7.63;;
32038;SDS011;18549;42.286;22.688;2022-10-16T02:18:33;13.07;;;7.27;;
32038;SDS011;18549;42.286;22.688;2022-10-16T02:21:01;10.77;;;6.50;;
32038;SDS011;18549;42.286;22.688;2022-10-16T02:23:40;16.33;;;7.57;;
32038;SDS011;18549;42.286;22.688;2022-10-16T02:26:12;17.03;;;8.03;;
32038;SDS011;18549;42.286;22.688;2022-10-16T02:28:44;12.17;;;7.10;;
32038;SDS011;18549;42.286;22.688;2022-10-16T02:31:17;8.43;;;7.20;;
32038;SDS011;18549;42.286;22.688;2022-10-16T02:33:49;10.93;;;7.10;;
32038;SDS011;18549;42.286;22.688;2022-10-16T02:36:19;14.83;;;7.60;;
32038;SDS011;18549;42.286;22.688;2022-10-16T02:38:46;11.60;;;7.03;;
32038;SDS011;18549;42.286;22.688;2022-10-16T02:41:14;11.67;;;6.40;;
32038;SDS011;18549;42.286;22.688;2022-10-16T02:43:41;11.30;;;7.30;;
32038;SDS011;18549;42.286;22.688;2022-10-16T02:46:08;10.97;;;6.83;;
32038;SDS011;18549;42.286;22.688;2022-10-16T02:48:39;15.80;;;7.83;;
32038;SDS011;18549;42.286;22.688;2022-10-16T02:51:06;10.37;;;7.13;;
32038;SDS011;18549;42.286;22.688;2022-10-16T02:53:32;14.43;;;7.43;;
32038;SDS011;18549;42.286;22.688;2022-10-16T02:55:59;17.30;;;7.90;;
32038;SDS011;18549;42.286;22.688;2022-10-16T02:58:27;8.83;;;6.70;;
32038;SDS011;18549;42.286;22.688;2022-10-16T03:00:54;7.90;;;6.20;;
32038;SDS011;18549;42.286;22.688;2022-10-16T03:03:22;16.57;;;7.00;;
32038;SDS011;18549;42.286;22.688;2022-10-16T03:05:50;11.67;;;6.60;;
32038;SDS011;18549;42.286;22.688;2022-10-16T03:08:17;8.33;;;6.10;;
32038;SDS011;18549;42.286;22.688;2022-10-16T03:10:48;11.40;;;6.67;;
32038;SDS011;18549;42.286;22.688;2022-10-16T03:13:15;9.03;;;6.13;;
32038;SDS011;18549;42.286;22.688;2022-10-16T03:15:42;14.97;;;6.77;;
32038;SDS011;18549;42.286;22.688;2022-10-16T03:18:11;15.33;;;5.83;;
32038;SDS011;18549;42.286;22.688;2022-10-16T03:20:40;11.10;;;6.57;;
32038;SDS011;18549;42.286;22.688;2022-10-16T03:23:08;6.80;;;5.37;;
32038;SDS011;18549;42.286;22.688;2022-10-16T03:25:36;9.13;;;5.10;;
32038;SDS011;18549;42.286;22.688;2022-10-16T03:28:06;9.77;;;7.40;;
32038;SDS011;18549;42.286;22.688;2022-10-16T03:30:33;17.70;;;8.80;;
32038;SDS011;18549;42.286;22.688;2022-10-16T03:33:01;13.77;;;8.90;;
32038;SDS011;18549;42.286;22.688;2022-10-16T03:35:28;16.13;;;11.47;;
32038;SDS011;18549;42.286;22.688;2022-10-16T03:37:55;21.97;;;13.77;;
32038;SDS011;18549;42.286;22.688;2022-10-16T03:40:23;15.87;;;11.33;;
32038;SDS011;18549;42.286;22.688;2022-10-16T03:42:51;17.93;;;13.97;;
32038;SDS011;18549;42.286;22.688;2022-10-16T03:45:20;21.43;;;14.90;;
32038;SDS011;18549;42.286;22.688;2022-10-16T03:47:47;20.67;;;12.70;;
32038;SDS011;18549;42.286;22.688;2022-10-16T03:50:14;18.47;;;11.20;;
32038;SDS011;18549;42.286;22.688;2022-10-16T03:52:41;20.07;;;11.57;;
32038;SDS011;18549;42.286;22.688;2022-10-16T03:55:07;12.53;;;9.30;;
32038;SDS011;18549;42.286;22.688;2022-10-16T03:57:38;10.63;;;8.57;;
32038;SDS011;18549;42.286;22.688;2022-10-16T04:00:06;11.73;;;7.50;;
32038;SDS011;18549;42.286;22.688;2022-10-16T04:02:33;12.23;;;7.67;;
32038;SDS011;18549;42.286;22.688;2022-10-16T04:05:00;8.37;;;5.83;;
32038;SDS011;18549;42.286;22.688;2022-10-16T04:07:27;13.27;;;7.80;;
32038;SDS011;18549;42.286;22.688;2022-10-16T04:09:55;13.13;;;7.80;;
32038;SDS011;18549;42.286;22.688;2022-10-16T04:12:23;14.97;;;7.73;;
32038;SDS011;18549;42.286;22.688;2022-10-16T04:14:52;16.97;;;7.23;;
32038;SDS011;18549;42.286;22.688;2022-10-16T04:17:20;17.70;;;8.37;;
32038;SDS011;18549;42.286;22.688;2022-10-16T04:19:47;22.37;;;8.00;;
32038;SDS011;18549;42.286;22.688;2022-10-16T04:22:14;10.50;;;7.80;;
32038;SDS011;18549;42.286;22.688;2022-10-16T04:24:41;11.30;;;7.33;;
32038;SDS011;18549;42.286;22.688;2022-10-16T04:27:08;14.27;;;7.40;;
32038;SDS011;18549;42.286;22.688;2022-10-16T04:29:35;11.60;;;7.67;;
32038;SDS011;18549;42.286;22.688;2022-10-16T04:32:04;31.67;;;7.93;;
32038;SDS011;18549;42.286;22.688;2022-10-16T04:34:30;19.17;;;10.50;;
32038;SDS011;18549;42.286;22.688;2022-10-16T04:36:57;18.17;;;10.07;;
32038;SDS011;18549;42.286;22.688;2022-10-16T04:39:24;16.70;;;9.40;;
32038;SDS011;18549;42.286;22.688;2022-10-16T04:41:51;12.73;;;9.77;;
32038;SDS011;18549;42.286;22.688;2022-10-16T04:44:21;12.77;;;9.23;;
32038;SDS011;18549;42.286;22.688;2022-10-16T04:46:50;18.77;;;12.20;;
32038;SDS011;18549;42.286;22.688;2022-10-16T04:49:18;18.20;;;11.43;;
32038;SDS011;18549;42.286;22.688;2022-10-16T04:51:45;20.03;;;11.30;;
32038;SDS011;18549;42.286;22.688;2022-10-16T04:54:12;21.80;;;13.90;;
32038;SDS011;18549;42.286;22.688;2022-10-16T04:56:39;21.30;;;12.77;;
32038;SDS011;18549;42.286;22.688;2022-10-16T04:59:12;22.97;;;13.17;;
32038;SDS011;18549;42.286;22.688;2022-10-16T05:01:39;18.53;;;12.07;;
32038;SDS011;18549;42.286;22.688;2022-10-16T05:04:06;28.30;;;12.13;;
32038;SDS011;18549;42.286;22.688;2022-10-16T05:06:35;16.73;;;11.10;;
32038;SDS011;18549;42.286;22.688;2022-10-16T05:09:04;18.20;;;11.00;;
32038;SDS011;18549;42.286;22.688;2022-10-16T05:11:34;23.03;;;11.30;;
32038;SDS011;18549;42.286;22.688;2022-10-16T05:14:01;23.10;;;12.57;;
32038;SDS011;18549;42.286;22.688;2022-10-16T05:16:28;22.83;;;13.77;;
32038;SDS011;18549;42.286;22.688;2022-10-16T05:18:56;26.10;;;14.97;;
32038;SDS011;18549;42.286;22.688;2022-10-16T05:21:25;34.30;;;15.40;;
32038;SDS011;18549;42.286;22.688;2022-10-16T05:23:57;31.67;;;16.23;;
32038;SDS011;18549;42.286;22.688;2022-10-16T05:26:24;24.00;;;16.83;;
32038;SDS011;18549;42.286;22.688;2022-10-16T05:28:53;29.90;;;22.07;;
32038;SDS011;18549;42.286;22.688;2022-10-16T05:31:20;27.27;;;18.73;;
32038;SDS011;18549;42.286;22.688;2022-10-16T05:33:46;33.77;;;21.23;;
32038;SDS011;18549;42.286;22.688;2022-10-16T05:36:14;33.87;;;18.13;;
32038;SDS011;18549;42.286;22.688;2022-10-16T05:38:41;30.17;;;17.70;;
32038;SDS011;18549;42.286;22.688;2022-10-16T05:41:09;35.50;;;19.63;;
32038;SDS011;18549;42.286;22.688;2022-10-16T05:43:36;44.87;;;28.50;;
32038;SDS011;18549;42.286;22.688;2022-10-16T05:46:04;56.27;;;30.53;;
32038;SDS011;18549;42.286;22.688;2022-10-16T05:48:32;34.33;;;18.43;;
32038;SDS011;18549;42.286;22.688;2022-10-16T05:51:00;24.93;;;15.53;;
32038;SDS011;18549;42.286;22.688;2022-10-16T05:53:29;19.03;;;12.17;;
32038;SDS011;18549;42.286;22.688;2022-10-16T05:55:57;24.23;;;11.70;;
32038;SDS011;18549;42.286;22.688;2022-10-16T05:58:30;15.37;;;10.60;;
32038;SDS011;18549;42.286;22.688;2022-10-16T06:01:00;15.77;;;11.03;;
32038;SDS011;18549;42.286;22.688;2022-10-16T06:03:29;22.37;;;11.03;;
32038;SDS011;18549;42.286;22.688;2022-10-16T06:05:58;18.13;;;10.30;;
32038;SDS011;18549;42.286;22.688;2022-10-16T06:08:28;15.23;;;10.47;;
32038;SDS011;18549;42.286;22.688;2022-10-16T06:11:02;17.97;;;9.27;;
32038;SDS011;18549;42.286;22.688;2022-10-16T06:13:31;17.37;;;10.60;;
32038;SDS011;18549;42.286;22.688;2022-10-16T06:15:59;23.67;;;10.70;;
32038;SDS011;18549;42.286;22.688;2022-10-16T06:18:29;16.60;;;10.37;;
32038;SDS011;18549;42.286;22.688;2022-10-16T06:20:56;16.57;;;11.33;;
32038;SDS011;18549;42.286;22.688;2022-10-16T06:23:24;28.77;;;14.20;;
32038;SDS011;18549;42.286;22.688;2022-10-16T06:25:51;21.67;;;15.57;;
32038;SDS011;18549;42.286;22.688;2022-10-16T06:28:18;23.77;;;15.37;;
32038;SDS011;18549;42.286;22.688;2022-10-16T06:30:46;26.70;;;17.83;;
32038;SDS011;18549;42.286;22.688;2022-10-16T06:33:14;36.60;;;19.40;;
32038;SDS011;18549;42.286;22.688;2022-10-16T06:35:40;26.07;;;19.00;;
32038;SDS011;18549;42.286;22.688;2022-10-16T06:38:07;31.63;;;17.77;;
32038;SDS011;18549;42.286;22.688;2022-10-16T06:40:34;23.33;;;15.37;;
32038;SDS011;18549;42.286;22.688;2022-10-16T06:43:01;21.83;;;15.57;;
32038;SDS011;18549;42.286;22.688;2022-10-16T06:45:28;25.43;;;16.00;;
32038;SDS011;18549;42.286;22.688;2022-10-16T06:47:56;21.60;;;13.70;;
32038;SDS011;18549;42.286;22.688;2022-10-16T06:50:23;22.80;;;14.93;;
32038;SDS011;18549;42.286;22.688;2022-10-16T06:52:51;19.67;;;13.10;;
32038;SDS011;18549;42.286;22.688;2022-10-16T06:55:18;19.83;;;12.83;;
32038;SDS011;18549;42.286;22.688;2022-10-16T06:57:46;25.20;;;14.27;;
32038;SDS011;18549;42.286;22.688;2022-10-16T07:00:14;16.03;;;12.13;;
32038;SDS011;18549;42.286;22.688;2022-10-16T07:02:41;26.97;;;17.20;;
32038;SDS011;18549;42.286;22.688;2022-10-16T07:05:09;21.30;;;14.40;;
32038;SDS011;18549;42.286;22.688;2022-10-16T07:07:36;16.57;;;12.73;;
32038;SDS011;18549;42.286;22.688;2022-10-16T07:10:03;23.03;;;14.73;;
32038;SDS011;18549;42.286;22.688;2022-10-16T07:12:31;23.47;;;16.53;;
32038;SDS011;18549;42.286;22.688;2022-10-16T07:14:57;22.60;;;15.90;;
32038;SDS011;18549;42.286;22.688;2022-10-16T07:17:24;21.77;;;12.67;;
32038;SDS011;18549;42.286;22.688;2022-10-16T07:19:54;25.10;;;13.17;;
32038;SDS011;18549;42.286;22.688;2022-10-16T07:22:24;20.57;;;12.57;;
32038;SDS011;18549;42.286;22.688;2022-10-16T07:24:52;15.00;;;11.00;;
32038;SDS011;18549;42.286;22.688;2022-10-16T07:27:22;15.33;;;11.80;;
32038;SDS011;18549;42.286;22.688;2022-10-16T07:29:49;20.50;;;12.50;;
32038;SDS011;18549;42.286;22.688;2022-10-16T07:32:16;18.53;;;13.27;;
32038;SDS011;18549;42.286;22.688;2022-10-16T07:34:45;24.30;;;14.13;;
32038;SDS011;18549;42.286;22.688;2022-10-16T07:37:16;21.83;;;16.03;;
32038;SDS011;18549;42.286;22.688;2022-10-16T07:39:53;23.20;;;14.07;;
32038;SDS011;18549;42.286;22.688;2022-10-16T07:42:20;21.00;;;16.87;;
32038;SDS011;18549;42.286;22.688;2022-10-16T07:44:48;21.27;;;15.60;;
32038;SDS011;18549;42.286;22.688;2022-10-16T07:47:14;28.13;;;18.53;;
32038;SDS011;18549;42.286;22.688;2022-10-16T07:49:41;23.63;;;13.53;;
32038;SDS011;18549;42.286;22.688;2022-10-16T07:52:08;26.73;;;14.10;;
32038;SDS011;18549;42.286;22.688;2022-10-16T07:54:35;21.23;;;14.07;;
32038;SDS011;18549;42.286;22.688;2022-10-16T07:57:03;21.87;;;13.53;;
32038;SDS011;18549;42.286;22.688;2022-10-16T07:59:30;18.27;;;12.50;;
32038;SDS011;18549;42.286;22.688;2022-10-16T08:01:57;17.00;;;11.57;;
32038;SDS011;18549;42.286;22.688;2022-10-16T08:04:24;16.73;;;9.53;;
32038;SDS011;18549;42.286;22.688;2022-10-16T08:06:51;19.20;;;9.67;;
32038;SDS011;18549;42.286;22.688;2022-10-16T08:09:19;18.97;;;9.10;;
32038;SDS011;18549;42.286;22.688;2022-10-16T08:11:46;17.50;;;9.27;;
32038;SDS011;18549;42.286;22.688;2022-10-16T08:14:14;19.17;;;9.40;;
32038;SDS011;18549;42.286;22.688;2022-10-16T08:16:44;12.30;;;9.20;;
32038;SDS011;18549;42.286;22.688;2022-10-16T08:19:18;17.27;;;9.23;;
32038;SDS011;18549;42.286;22.688;2022-10-16T08:21:46;22.17;;;10.07;;
32038;SDS011;18549;42.286;22.688;2022-10-16T08:24:17;11.87;;;9.73;;
32038;SDS011;18549;42.286;22.688;2022-10-16T08:26:44;14.20;;;10.00;;
32038;SDS011;18549;42.286;22.688;2022-10-16T08:29:13;13.73;;;9.63;;
32038;SDS011;18549;42.286;22.688;2022-10-16T08:31:41;12.83;;;8.97;;
32038;SDS011;18549;42.286;22.688;2022-10-16T08:34:08;12.93;;;8.63;;
32038;SDS011;18549;42.286;22.688;2022-10-16T08:36:35;14.10;;;8.53;;
32038;SDS011;18549;42.286;22.688;2022-10-16T08:39:02;11.10;;;8.47;;
32038;SDS011;18549;42.286;22.688;2022-10-16T08:44:31;14.53;;;6.67;;
32038;SDS011;18549;42.286;22.688;2022-10-16T08:47:12;10.43;;;6.70;;
32038;SDS011;18549;42.286;22.688;2022-10-16T08:49:43;10.50;;;6.77;;
32038;SDS011;18549;42.286;22.688;2022-10-16T08:52:29;11.43;;;6.83;;
32038;SDS011;18549;42.286;22.688;2022-10-16T08:55:00;10.80;;;6.40;;
32038;SDS011;18549;42.286;22.688;2022-10-16T08:57:28;8.57;;;5.90;;
32038;SDS011;18549;42.286;22.688;2022-10-16T08:59:59;7.20;;;5.67;;
32038;SDS011;18549;42.286;22.688;2022-10-16T09:02:32;11.20;;;6.27;;
32038;SDS011;18549;42.286;22.688;2022-10-16T09:05:17;9.48;;;6.85;;
32038;SDS011;18549;42.286;22.688;2022-10-16T09:07:58;12.63;;;7.00;;
32038;SDS011;18549;42.286;22.688;2022-10-16T09:10:33;10.02;;;7.32;;
32038;SDS011;18549;42.286;22.688;2022-10-16T09:13:13;7.62;;;4.90;;
32038;SDS011;18549;42.286;22.688;2022-10-16T09:15:58;8.38;;;5.72;;
32038;SDS011;18549;42.286;22.688;2022-10-16T09:18:50;9.27;;;4.78;;
32038;SDS011;18549;42.286;22.688;2022-10-16T09:21:23;7.78;;;4.60;;
32038;SDS011;18549;42.286;22.688;2022-10-16T09:23:53;6.72;;;4.20;;
32038;SDS011;18549;42.286;22.688;2022-10-16T09:26:24;8.80;;;3.97;;
32038;SDS011;18549;42.286;22.688;2022-10-16T09:28:54;11.20;;;5.03;;
32038;SDS011;18549;42.286;22.688;2022-10-16T09:31:26;9.27;;;4.68;;
32038;SDS011;18549;42.286;22.688;2022-10-16T09:33:57;4.87;;;4.35;;
32038;SDS011;18549;42.286;22.688;2022-10-16T09:36:29;4.53;;;3.30;;
32038;SDS011;18549;42.286;22.688;2022-10-16T09:39:03;7.22;;;4.57;;
32038;SDS011;18549;42.286;22.688;2022-10-16T09:41:33;7.70;;;3.67;;
32038;SDS011;18549;42.286;22.688;2022-10-16T09:44:02;7.50;;;4.05;;
32038;SDS011;18549;42.286;22.688;2022-10-16T09:46:40;7.53;;;3.50;;
32038;SDS011;18549;42.286;22.688;2022-10-16T09:49:18;5.53;;;4.05;;
32038;SDS011;18549;42.286;22.688;2022-10-16T09:51:48;5.57;;;3.87;;
32038;SDS011;18549;42.286;22.688;2022-10-16T09:54:17;5.57;;;3.92;;
32038;SDS011;18549;42.286;22.688;2022-10-16T09:56:47;4.75;;;3.20;;
32038;SDS011;18549;42.286;22.688;2022-10-16T09:59:18;5.25;;;3.53;;
32038;SDS011;18549;42.286;22.688;2022-10-16T10:01:48;8.00;;;3.65;;
32038;SDS011;18549;42.286;22.688;2022-10-16T10:04:16;5.53;;;4.07;;
32038;SDS011;18549;42.286;22.688;2022-10-16T10:06:45;5.82;;;3.47;;
32038;SDS011;18549;42.286;22.688;2022-10-16T10:09:15;5.18;;;3.75;;
32038;SDS011;18549;42.286;22.688;2022-10-16T10:11:49;8.82;;;4.45;;
32038;SDS011;18549;42.286;22.688;2022-10-16T10:14:19;5.53;;;3.80;;
32038;SDS011;18549;42.286;22.688;2022-10-16T10:17:08;5.90;;;3.22;;
32038;SDS011;18549;42.286;22.688;2022-10-16T10:19:38;4.72;;;3.65;;
32038;SDS011;18549;42.286;22.688;2022-10-16T10:22:17;6.68;;;4.47;;
32038;SDS011;18549;42.286;22.688;2022-10-16T10:24:54;9.00;;;4.70;;
32038;SDS011;18549;42.286;22.688;2022-10-16T10:27:23;7.45;;;3.75;;
32038;SDS011;18549;42.286;22.688;2022-10-16T10:30:01;8.18;;;3.78;;
32038;SDS011;18549;42.286;22.688;2022-10-16T10:32:38;6.93;;;4.12;;
32038;SDS011;18549;42.286;22.688;2022-10-16T10:35:16;5.60;;;3.58;;
32038;SDS011;18549;42.286;22.688;2022-10-16T10:37:51;5.78;;;3.92;;
32038;SDS011;18549;42.286;22.688;2022-10-16T10:40:32;6.80;;;4.00;;
32038;SDS011;18549;42.286;22.688;2022-10-16T10:43:13;5.40;;;3.87;;
32038;SDS011;18549;42.286;22.688;2022-10-16T10:45:52;4.32;;;3.55;;
32038;SDS011;18549;42.286;22.688;2022-10-16T10:48:31;5.30;;;3.12;;
32038;SDS011;18549;42.286;22.688;2022-10-16T10:51:28;7.85;;;3.53;;
32038;SDS011;18549;42.286;22.688;2022-10-16T10:54:04;5.55;;;3.15;;
32038;SDS011;18549;42.286;22.688;2022-10-16T10:56:45;6.32;;;2.60;;
32038;SDS011;18549;42.286;22.688;2022-10-16T11:02:11;3.62;;;2.40;;
32038;SDS011;18549;42.286;22.688;2022-10-16T11:05:02;3.62;;;2.35;;
32038;SDS011;18549;42.286;22.688;2022-10-16T11:07:42;4.60;;;2.97;;
32038;SDS011;18549;42.286;22.688;2022-10-16T11:10:15;5.43;;;2.80;;
32038;SDS011;18549;42.286;22.688;2022-10-16T11:12:47;3.30;;;2.05;;
32038;SDS011;18549;42.286;22.688;2022-10-16T11:15:25;4.07;;;2.10;;
32038;SDS011;18549;42.286;22.688;2022-10-16T11:17:57;3.53;;;2.50;;
32038;SDS011;18549;42.286;22.688;2022-10-16T11:20:37;3.97;;;2.55;;
32038;SDS011;18549;42.286;22.688;2022-10-16T11:23:10;3.62;;;2.08;;
32038;SDS011;18549;42.286;22.688;2022-10-16T11:25:42;7.53;;;2.65;;
32038;SDS011;18549;42.286;22.688;2022-10-16T11:28:12;3.92;;;2.60;;
32038;SDS011;18549;42.286;22.688;2022-10-16T11:30:41;2.58;;;2.15;;
32038;SDS011;18549;42.286;22.688;2022-10-16T11:33:22;2.97;;;1.70;;
32038;SDS011;18549;42.286;22.688;2022-10-16T11:35:59;3.35;;;2.20;;
32038;SDS011;18549;42.286;22.688;2022-10-16T11:38:30;4.57;;;2.00;;
32038;SDS011;18549;42.286;22.688;2022-10-16T11:41:02;3.53;;;2.15;;
32038;SDS011;18549;42.286;22.688;2022-10-16T11:43:37;3.78;;;2.35;;
32038;SDS011;18549;42.286;22.688;2022-10-16T11:46:09;3.85;;;2.20;;
32038;SDS011;18549;42.286;22.688;2022-10-16T11:48:43;4.12;;;2.30;;
32038;SDS011;18549;42.286;22.688;2022-10-16T11:51:17;2.60;;;2.30;;
32038;SDS011;18549;42.286;22.688;2022-10-16T11:53:53;5.03;;;2.80;;
32038;SDS011;18549;42.286;22.688;2022-10-16T11:56:29;6.25;;;2.83;;
32038;SDS011;18549;42.286;22.688;2022-10-16T11:58:58;3.62;;;2.22;;
32038;SDS011;18549;42.286;22.688;2022-10-16T12:01:30;3.92;;;2.95;;
32038;SDS011;18549;42.286;22.688;2022-10-16T12:04:04;5.37;;;3.03;;
32038;SDS011;18549;42.286;22.688;2022-10-16T12:06:48;5.60;;;2.47;;
32038;SDS011;18549;42.286;22.688;2022-10-16T12:09:25;9.07;;;3.50;;
32038;SDS011;18549;42.286;22.688;2022-10-16T12:11:54;5.15;;;3.22;;
32038;SDS011;18549;42.286;22.688;2022-10-16T12:14:32;4.95;;;2.97;;
32038;SDS011;18549;42.286;22.688;2022-10-16T12:17:03;3.15;;;2.00;;
32038;SDS011;18549;42.286;22.688;2022-10-16T12:19:56;9.52;;;2.55;;
32038;SDS011;18549;42.286;22.688;2022-10-16T12:22:26;2.72;;;2.03;;
32038;SDS011;18549;42.286;22.688;2022-10-16T12:24:55;6.03;;;2.72;;
32038;SDS011;18549;42.286;22.688;2022-10-16T12:27:24;6.65;;;2.85;;
32038;SDS011;18549;42.286;22.688;2022-10-16T12:29:54;3.37;;;2.20;;
32038;SDS011;18549;42.286;22.688;2022-10-16T12:32:25;5.60;;;3.28;;
32038;SDS011;18549;42.286;22.688;2022-10-16T12:34:55;3.78;;;3.12;;
32038;SDS011;18549;42.286;22.688;2022-10-16T12:37:24;4.97;;;2.37;;
32038;SDS011;18549;42.286;22.688;2022-10-16T12:39:55;4.57;;;2.50;;
32038;SDS011;18549;42.286;22.688;2022-10-16T12:42:31;5.60;;;2.40;;
32038;SDS011;18549;42.286;22.688;2022-10-16T12:44:59;6.78;;;3.95;;
32038;SDS011;18549;42.286;22.688;2022-10-16T12:47:47;9.80;;;3.67;;
32038;SDS011;18549;42.286;22.688;2022-10-16T12:50:30;5.60;;;3.65;;
32038;SDS011;18549;42.286;22.688;2022-10-16T12:53:02;5.65;;;4.25;;
32038;SDS011;18549;42.286;22.688;2022-10-16T12:55:33;3.60;;;2.65;;
32038;SDS011;18549;42.286;22.688;2022-10-16T12:58:09;4.50;;;2.78;;
32038;SDS011;18549;42.286;22.688;2022-10-16T13:00:48;5.35;;;2.70;;
32038;SDS011;18549;42.286;22.688;2022-10-16T13:03:28;4.55;;;3.28;;
32038;SDS011;18549;42.286;22.688;2022-10-16T13:06:13;3.65;;;2.25;;
32038;SDS011;18549;42.286;22.688;2022-10-16T13:09:02;4.60;;;2.55;;
32038;SDS011;18549;42.286;22.688;2022-10-16T13:11:43;4.72;;;2.10;;
32038;SDS011;18549;42.286;22.688;2022-10-16T13:14:31;3.83;;;2.72;;
32038;SDS011;18549;42.286;22.688;2022-10-16T13:17:16;4.00;;;2.50;;
32038;SDS011;18549;42.286;22.688;2022-10-16T13:19:53;4.75;;;2.10;;
32038;SDS011;18549;42.286;22.688;2022-10-16T13:22:29;9.50;;;3.25;;
32038;SDS011;18549;42.286;22.688;2022-10-16T13:25:08;5.82;;;2.70;;
32038;SDS011;18549;42.286;22.688;2022-10-16T13:27:46;4.10;;;2.20;;
32038;SDS011;18549;42.286;22.688;2022-10-16T13:30:20;12.20;;;3.10;;
32038;SDS011;18549;42.286;22.688;2022-10-16T13:32:50;5.93;;;2.55;;
32038;SDS011;18549;42.286;22.688;2022-10-16T13:35:23;2.55;;;1.73;;
32038;SDS011;18549;42.286;22.688;2022-10-16T13:38:02;4.18;;;2.20;;
32038;SDS011;18549;42.286;22.688;2022-10-16T13:40:32;5.35;;;2.03;;
32038;SDS011;18549;42.286;22.688;2022-10-16T13:42:59;3.55;;;2.25;;
32038;SDS011;18549;42.286;22.688;2022-10-16T13:45:27;2.83;;;2.17;;
32038;SDS011;18549;42.286;22.688;2022-10-16T13:48:01;8.32;;;4.05;;
32038;SDS011;18549;42.286;22.688;2022-10-16T13:50:29;8.50;;;2.95;;
32038;SDS011;18549;42.286;22.688;2022-10-16T13:53:04;12.02;;;4.43;;
32038;SDS011;18549;42.286;22.688;2022-10-16T13:55:33;4.03;;;2.35;;
32038;SDS011;18549;42.286;22.688;2022-10-16T13:58:17;4.05;;;2.50;;
32038;SDS011;18549;42.286;22.688;2022-10-16T14:00:52;3.42;;;2.28;;
32038;SDS011;18549;42.286;22.688;2022-10-16T14:03:24;5.50;;;3.83;;
32038;SDS011;18549;42.286;22.688;2022-10-16T14:05:52;8.57;;;5.15;;
32038;SDS011;18549;42.286;22.688;2022-10-16T14:08:24;4.95;;;3.75;;
32038;SDS011;18549;42.286;22.688;2022-10-16T14:10:56;5.70;;;3.17;;
32038;SDS011;18549;42.286;22.688;2022-10-16T14:13:27;4.70;;;3.30;;
32038;SDS011;18549;42.286;22.688;2022-10-16T14:15:57;6.55;;;4.85;;
32038;SDS011;18549;42.286;22.688;2022-10-16T14:18:28;5.20;;;3.30;;
32038;SDS011;18549;42.286;22.688;2022-10-16T14:21:01;5.32;;;3.97;;
32038;SDS011;18549;42.286;22.688;2022-10-16T14:23:33;12.30;;;2.47;;
32038;SDS011;18549;42.286;22.688;2022-10-16T14:26:07;4.72;;;3.92;;
32038;SDS011;18549;42.286;22.688;2022-10-16T14:28:40;4.50;;;2.83;;
32038;SDS011;18549;42.286;22.688;2022-10-16T14:31:28;2.97;;;2.50;;
32038;SDS011;18549;42.286;22.688;2022-10-16T14:33:56;8.38;;;3.87;;
32038;SDS011;18549;42.286;22.688;2022-10-16T14:36:27;5.12;;;2.80;;
32038;SDS011;18549;42.286;22.688;2022-10-16T14:38:57;3.95;;;2.95;;
32038;SDS011;18549;42.286;22.688;2022-10-16T14:41:30;7.00;;;3.83;;
32038;SDS011;18549;42.286;22.688;2022-10-16T14:44:01;4.90;;;3.37;;
32038;SDS011;18549;42.286;22.688;2022-10-16T14:46:31;6.93;;;4.05;;
32038;SDS011;18549;42.286;22.688;2022-10-16T14:49:02;10.68;;;3.97;;
32038;SDS011;18549;42.286;22.688;2022-10-16T14:51:40;10.43;;;2.83;;